METAR Data
IDs: Format: Raw Decoded Include TAF

Data at: 1547 UTC 24 Aug 2019

PAIN 241456Z AUTO 00000KT 10SM OVC045 05/04 A2972 RMK AO2 SLP083 T00500044 53008
PAIN 241356Z AUTO 00000KT 10SM OVC049 05/04 A2970 RMK AO2 SLP078 T00500039
PAIN 241256Z AUTO 00000KT 10SM OVC049 05/04 A2970 RMK AO2 SLP074 T00500044
PAIN 241156Z AUTO 00000KT 10SM OVC045 05/04 A2969 RMK AO2 SLP073 60000 70018 T00500044 10089 20050 53009
PAIN 241056Z AUTO 00000KT 10SM BKN047 OVC085 06/05 A2968 RMK AO2 RAE14 SLP070 P0000 T00610050
PAIN 240956Z AUTO VRB03KT 10SM -RA SCT042 OVC050 08/05 A2967 RMK AO2 SLP065 P0000 T00780050
PAIN 240856Z AUTO VRB04KT 10SM -RA BKN043 OVC050 08/04 A2967 RMK AO2 RAB43 SLP063 P0000 60000 T00830039 401280028 51011
PAIN 240756Z AUTO 00000KT 10SM OVC049 08/03 A2965 RMK AO2 SLP061 T00830033
PAIN 240656Z AUTO 00000KT 10SM OVC049 08/04 A2964 RMK AO2 RAB23E36 SLP058 P0000 T00780044
PAIN 240556Z AUTO 26003KT 10SM FEW055 BKN090 OVC100 08/03 A2963 RMK AO2 SLP055 T00830033 10128 20083 52012
PAIN 240456Z AUTO 00000KT 10SM OVC085 10/02 A2962 RMK AO2 SLP050 T01000017
PAIN 240356Z AUTO 34004KT 10SM OVC095 11/02 A2960 RMK AO2 SLP045 T01060022
PAIN 240256Z AUTO 36007KT 330V040 10SM BKN100 OVC110 12/03 A2959 RMK AO2 SLP040 T01170028 53008
PAIN 240156Z AUTO 36008KT 10SM BKN095 OVC120 12/02 A2958 RMK AO2 SLP036 T01170022
PAIN 240056Z AUTO 36007KT 10SM SCT055 BKN110 12/06 A2957 RMK AO2 SLP031 T01220056
PAIN 232356Z AUTO 01005KT 10SM FEW043 SCT090 OVC110 13/06 A2957 RMK AO2 RAE32 SLP031 P0000 60005 T01280056 10128 20050 56004
PAIN 232256Z AUTO 34004KT 10SM -RA SCT021 BKN046 OVC055 11/08 A2958 RMK AO2 RAB23 SLP034 P0001 T01060078
PAIN 232156Z AUTO 00000KT 10SM FEW035 BKN044 BKN055 11/07 A2957 RMK AO2 SLP031 T01110072
PAIN 232056Z AUTO 00000KT 10SM OVC055 10/07 A2958 RMK AO2 RAE13 SLP037 P0000 60004 T01000072 58004
PAIN 232018Z AUTO 00000KT 10SM FEW003 OVC044 08/07 A2959 RMK AO2 RAE13 P0000
PAIN 231956Z AUTO 00000KT 10SM -RA BKN003 OVC046 08/07 A2959 RMK AO2 SLP042 P0001 T00780072
PAIN 231921Z AUTO 00000KT 10SM -RA SCT003 SCT008 OVC026 07/06 A2960 RMK AO2 P0001
PAIN 231856Z AUTO 00000KT 4SM RA BR BKN003 OVC050 07/06 A2960 RMK AO2 RAE11B37 SLP043 P0003 T00670056
PAIN 231813Z AUTO 00000KT 10SM BKN003 BKN044 OVC065 05/05 A2959 RMK AO2 RAE11 P0000
PAIN 231756Z AUTO 00000KT 7SM -RA SCT046 OVC065 05/04 A2959 RMK AO2 SLP042 P0002 60013 T00500044 10056 20028 58002
PAIN 231714Z AUTO 00000KT 7SM -RA FEW027 OVC039 04/04 A2960 RMK AO2 P0002
PAIN 231656Z AUTO 00000KT 4SM RA BR FEW001 BKN027 OVC039 04/04 A2960 RMK AO2 RAE34B50 SLP044 P0001 T00440039
PAIN 231640Z AUTO 00000KT 10SM SCT001 BKN029 OVC065 04/04 A2960 RMK AO2 RAE34 P0000
PAIN 231556Z AUTO 00000KT 10SM -RA FEW010 BKN042 OVC060 04/03 A2960 RMK AO2 SLP045 P0003 T00390033
PAIN 231456Z AUTO 00000KT 4SM RA BR OVC039 03/03 A2960 RMK AO2 SLP044 P0004 60007 T00330033 53001
PAIN 231420Z AUTO 00000KT 10SM FEW003 SCT028 OVC039 03/03 A2959 RMK AO2 RAE16 P0001
PAIN 231356Z AUTO 00000KT 3SM RA BR OVC003 03/03 A2959 RMK AO2 RAB35 SLP042 P0003 T00330028
PAIN 231256Z AUTO 00000KT 10SM BKN003 OVC006 03/03 A2960 RMK AO2 SLP043 T00280028
PAIN 231233Z AUTO 00000KT 3SM BR OVC003 03/03 A2960 RMK AO2
PAIN 231225Z AUTO 00000KT 1 3/4SM BR OVC003 04/03 A2960 RMK AO2
PAIN 231156Z AUTO 20003KT 10SM OVC003 03/03 A2960 RMK AO2 SLP042 70013 T00330033 10083 20033 58005
PAIN 231109Z AUTO 00000KT 4SM BR OVC003 03/03 A2960 RMK AO2
PAIN 231107Z AUTO 00000KT 1 1/2SM BR OVC003 03/03 A2960 RMK AO2
PAIN 231104Z AUTO 00000KT 3/4SM BR OVC003 03/03 A2960 RMK AO2
PAIN 231056Z AUTO 00000KT 1/4SM FG BKN003 OVC085 04/03 A2960 RMK AO2 SLP043 T00390033
PAIN 231047Z AUTO 00000KT 1/4SM FG BKN003 OVC085 03/03 A2960 RMK AO2
PAIN 231038Z AUTO 00000KT 1/2SM FG SCT005 OVC085 03/03 A2961 RMK AO2
PAIN 231034Z AUTO 00000KT 1SM BR SCT005 OVC085 03/03 A2961 RMK AO2
PAIN 231032Z AUTO 00000KT 1 3/4SM BR BKN005 OVC085 03/03 A2961 RMK AO2
PAIN 231015Z AUTO 00000KT 10SM BKN005 OVC085 03/03 A2961 RMK AO2
PAIN 230956Z AUTO 00000KT 10SM FEW007 OVC085 04/03 A2961 RMK AO2 SLP045 T00390028
PAIN 230948Z AUTO 20004KT 10SM FEW007 BKN085 04/03 A2961 RMK AO2
PAIN 230856Z AUTO 21003KT 10SM CLR 03/03 A2961 RMK AO2 SLP047 T00330028 401330033 51003
PAIN 230832Z AUTO 00000KT 10SM FEW006 04/03 A2962 RMK AO2
PAIN 230756Z AUTO 24003KT 10SM BKN006 04/04 A2961 RMK AO2 CIG 005V009 SLP047 T00440039
PAIN 230707Z AUTO 00000KT 10SM BKN008 06/05 A2961 RMK AO2
PAIN 230656Z AUTO 00000KT 10SM CLR 06/06 A2961 RMK AO2 SLP046 T00610056
PAIN 230556Z AUTO 00000KT 10SM BKN046 08/08 A2961 RMK AO2 RAE09 SLP044 P0000 60012 T00780078 10117 20078 56005
PAIN 230456Z AUTO 00000KT 10SM -RA OVC050 09/08 A2961 RMK AO2 RAB12 SLP046 P0001 T00940083
PAIN 230356Z AUTO 00000KT 10SM OVC048 09/08 A2961 RMK AO2 RAE31 SLP046 P0001 T00940083